sensor_id;sensor_type;location;lat;lon;timestamp;temperature;humidity
81140;SHT31;70624;51.978;5.656;2023-11-21T00:02:08;10.6;73.3
81140;SHT31;70624;51.978;5.656;2023-11-21T00:04:37;10.6;73.4
81140;SHT31;70624;51.978;5.656;2023-11-21T00:07:06;10.5;73.6
81140;SHT31;70624;51.978;5.656;2023-11-21T00:09:34;10.5;73.7
81140;SHT31;70624;51.978;5.656;2023-11-21T00:12:03;10.5;73.5
81140;SHT31;70624;51.978;5.656;2023-11-21T00:14:34;10.5;73.7
81140;SHT31;70624;51.978;5.656;2023-11-21T00:17:02;10.4;73.7
81140;SHT31;70624;51.978;5.656;2023-11-21T00:19:31;10.4;73.5
81140;SHT31;70624;51.978;5.656;2023-11-21T00:22:01;10.4;73.8
81140;SHT31;70624;51.978;5.656;2023-11-21T00:24:29;10.4;74.0
81140;SHT31;70624;51.978;5.656;2023-11-21T00:26:58;10.3;73.4
81140;SHT31;70624;51.978;5.656;2023-11-21T00:29:26;10.3;73.7
81140;SHT31;70624;51.978;5.656;2023-11-21T00:31:55;10.3;73.9
81140;SHT31;70624;51.978;5.656;2023-11-21T00:34:23;10.3;73.7
81140;SHT31;70624;51.978;5.656;2023-11-21T00:36:52;10.3;73.5
81140;SHT31;70624;51.978;5.656;2023-11-21T00:39:20;10.3;73.4
81140;SHT31;70624;51.978;5.656;2023-11-21T00:41:49;10.2;73.2
81140;SHT31;70624;51.978;5.656;2023-11-21T00:44:17;10.2;73.3
81140;SHT31;70624;51.978;5.656;2023-11-21T00:46:46;10.2;73.5
81140;SHT31;70624;51.978;5.656;2023-11-21T00:49:14;10.1;73.3
81140;SHT31;70624;51.978;5.656;2023-11-21T00:51:42;10.1;73.3
81140;SHT31;70624;51.978;5.656;2023-11-21T00:54:12;10.1;73.3
81140;SHT31;70624;51.978;5.656;2023-11-21T00:56:43;10.1;73.2
81140;SHT31;70624;51.978;5.656;2023-11-21T00:59:13;10.0;73.4
81140;SHT31;70624;51.978;5.656;2023-11-21T01:01:44;10.0;73.1
81140;SHT31;70624;51.978;5.656;2023-11-21T01:04:12;10.0;73.6
81140;SHT31;70624;51.978;5.656;2023-11-21T01:06:41;9.9;73.6
81140;SHT31;70624;51.978;5.656;2023-11-21T01:09:09;9.9;73.6
81140;SHT31;70624;51.978;5.656;2023-11-21T01:11:39;9.9;73.5
81140;SHT31;70624;51.978;5.656;2023-11-21T01:14:07;9.9;74.2
81140;SHT31;70624;51.978;5.656;2023-11-21T01:16:37;9.9;74.1
81140;SHT31;70624;51.978;5.656;2023-11-21T01:19:05;9.8;74.7
81140;SHT31;70624;51.978;5.656;2023-11-21T01:21:33;9.8;75.1
81140;SHT31;70624;51.978;5.656;2023-11-21T01:24:02;9.8;75.1
81140;SHT31;70624;51.978;5.656;2023-11-21T01:26:33;9.9;75.3
81140;SHT31;70624;51.978;5.656;2023-11-21T01:29:02;9.9;75.4
81140;SHT31;70624;51.978;5.656;2023-11-21T01:31:30;9.9;75.7
81140;SHT31;70624;51.978;5.656;2023-11-21T01:33:59;9.9;75.4
81140;SHT31;70624;51.978;5.656;2023-11-21T01:36:31;9.9;75.3
81140;SHT31;70624;51.978;5.656;2023-11-21T01:39:01;9.9;75.7
81140;SHT31;70624;51.978;5.656;2023-11-21T01:41:36;10.0;75.9
81140;SHT31;70624;51.978;5.656;2023-11-21T01:44:05;10.0;76.0
81140;SHT31;70624;51.978;5.656;2023-11-21T01:46:35;10.0;75.8
81140;SHT31;70624;51.978;5.656;2023-11-21T01:49:04;10.0;76.0
81140;SHT31;70624;51.978;5.656;2023-11-21T01:51:36;10.0;75.6
81140;SHT31;70624;51.978;5.656;2023-11-21T01:54:06;10.1;75.2
81140;SHT31;70624;51.978;5.656;2023-11-21T01:56:35;10.1;75.1
81140;SHT31;70624;51.978;5.656;2023-11-21T01:59:04;10.1;74.9
81140;SHT31;70624;51.978;5.656;2023-11-21T02:01:33;10.1;75.0
81140;SHT31;70624;51.978;5.656;2023-11-21T02:04:02;10.1;74.8
81140;SHT31;70624;51.978;5.656;2023-11-21T02:06:31;10.1;74.6
81140;SHT31;70624;51.978;5.656;2023-11-21T02:09:00;10.1;74.8
81140;SHT31;70624;51.978;5.656;2023-11-21T02:11:31;10.1;74.7
81140;SHT31;70624;51.978;5.656;2023-11-21T02:14:01;10.1;75.0
81140;SHT31;70624;51.978;5.656;2023-11-21T02:16:32;10.1;74.7
81140;SHT31;70624;51.978;5.656;2023-11-21T02:19:01;10.1;75.1
81140;SHT31;70624;51.978;5.656;2023-11-21T02:21:31;10.1;75.3
81140;SHT31;70624;51.978;5.656;2023-11-21T02:24:00;10.1;75.4
81140;SHT31;70624;51.978;5.656;2023-11-21T02:26:29;10.1;75.2
81140;SHT31;70624;51.978;5.656;2023-11-21T02:28:57;10.1;75.5
81140;SHT31;70624;51.978;5.656;2023-11-21T02:31:27;10.1;75.4
81140;SHT31;70624;51.978;5.656;2023-11-21T02:33:56;10.1;75.8
81140;SHT31;70624;51.978;5.656;2023-11-21T02:36:25;10.1;76.0
81140;SHT31;70624;51.978;5.656;2023-11-21T02:38:53;10.1;76.0
81140;SHT31;70624;51.978;5.656;2023-11-21T02:41:22;10.1;76.1
81140;SHT31;70624;51.978;5.656;2023-11-21T02:43:50;10.1;76.1
81140;SHT31;70624;51.978;5.656;2023-11-21T02:46:18;10.2;76.1
81140;SHT31;70624;51.978;5.656;2023-11-21T02:48:47;10.2;76.1
81140;SHT31;70624;51.978;5.656;2023-11-21T02:51:17;10.2;76.1
81140;SHT31;70624;51.978;5.656;2023-11-21T02:53:46;10.2;75.8
81140;SHT31;70624;51.978;5.656;2023-11-21T02:56:14;10.2;76.1
81140;SHT31;70624;51.978;5.656;2023-11-21T02:58:43;10.3;76.1
81140;SHT31;70624;51.978;5.656;2023-11-21T03:01:12;10.3;76.2
81140;SHT31;70624;51.978;5.656;2023-11-21T03:03:40;10.3;76.4
81140;SHT31;70624;51.978;5.656;2023-11-21T03:06:09;10.3;76.5
81140;SHT31;70624;51.978;5.656;2023-11-21T03:08:39;10.3;76.3
81140;SHT31;70624;51.978;5.656;2023-11-21T03:11:08;10.4;76.2
81140;SHT31;70624;51.978;5.656;2023-11-21T03:13:37;10.4;76.0
81140;SHT31;70624;51.978;5.656;2023-11-21T03:16:06;10.4;75.9
81140;SHT31;70624;51.978;5.656;2023-11-21T03:18:34;10.4;75.6
81140;SHT31;70624;51.978;5.656;2023-11-21T03:21:03;10.4;75.4
81140;SHT31;70624;51.978;5.656;2023-11-21T03:23:32;10.4;75.4
81140;SHT31;70624;51.978;5.656;2023-11-21T03:26:00;10.5;75.4
81140;SHT31;70624;51.978;5.656;2023-11-21T03:28:28;10.5;75.8
81140;SHT31;70624;51.978;5.656;2023-11-21T03:30:57;10.5;75.9
81140;SHT31;70624;51.978;5.656;2023-11-21T03:33:27;10.5;76.1
81140;SHT31;70624;51.978;5.656;2023-11-21T03:35:56;10.5;76.3
81140;SHT31;70624;51.978;5.656;2023-11-21T03:38:24;10.6;76.3
81140;SHT31;70624;51.978;5.656;2023-11-21T03:40:53;10.6;76.3
81140;SHT31;70624;51.978;5.656;2023-11-21T03:43:21;10.6;76.4
81140;SHT31;70624;51.978;5.656;2023-11-21T03:45:51;10.7;76.5
81140;SHT31;70624;51.978;5.656;2023-11-21T03:48:19;10.7;76.4
81140;SHT31;70624;51.978;5.656;2023-11-21T03:50:47;10.7;76.5
81140;SHT31;70624;51.978;5.656;2023-11-21T03:53:16;10.8;76.6
81140;SHT31;70624;51.978;5.656;2023-11-21T03:55:44;10.8;76.4
81140;SHT31;70624;51.978;5.656;2023-11-21T03:58:13;10.8;76.4
81140;SHT31;70624;51.978;5.656;2023-11-21T04:00:41;10.9;76.5
81140;SHT31;70624;51.978;5.656;2023-11-21T04:03:09;10.9;76.4
81140;SHT31;70624;51.978;5.656;2023-11-21T04:05:39;10.9;76.3
81140;SHT31;70624;51.978;5.656;2023-11-21T04:08:09;10.9;76.3
81140;SHT31;70624;51.978;5.656;2023-11-21T04:10:37;11.0;76.3
81140;SHT31;70624;51.978;5.656;2023-11-21T04:13:10;11.0;76.1
81140;SHT31;70624;51.978;5.656;2023-11-21T04:15:38;11.0;76.1
81140;SHT31;70624;51.978;5.656;2023-11-21T04:18:07;11.1;76.2
81140;SHT31;70624;51.978;5.656;2023-11-21T04:20:35;11.1;76.2
81140;SHT31;70624;51.978;5.656;2023-11-21T04:23:04;11.1;76.0
81140;SHT31;70624;51.978;5.656;2023-11-21T04:25:32;11.1;76.1
81140;SHT31;70624;51.978;5.656;2023-11-21T04:28:00;11.1;76.0
81140;SHT31;70624;51.978;5.656;2023-11-21T04:30:32;11.2;75.8
81140;SHT31;70624;51.978;5.656;2023-11-21T04:33:03;11.2;75.9
81140;SHT31;70624;51.978;5.656;2023-11-21T04:35:31;11.2;75.9
81140;SHT31;70624;51.978;5.656;2023-11-21T04:38:00;11.2;75.9
81140;SHT31;70624;51.978;5.656;2023-11-21T04:40:29;11.2;76.0
81140;SHT31;70624;51.978;5.656;2023-11-21T04:42:57;11.3;75.9
81140;SHT31;70624;51.978;5.656;2023-11-21T04:45:26;11.3;76.1
81140;SHT31;70624;51.978;5.656;2023-11-21T04:47:54;11.3;76.1
81140;SHT31;70624;51.978;5.656;2023-11-21T04:50:22;11.3;76.1
81140;SHT31;70624;51.978;5.656;2023-11-21T04:52:52;11.3;76.0
81140;SHT31;70624;51.978;5.656;2023-11-21T04:55:21;11.3;76.2
81140;SHT31;70624;51.978;5.656;2023-11-21T04:57:49;11.4;76.1
81140;SHT31;70624;51.978;5.656;2023-11-21T05:00:18;11.4;76.0
81140;SHT31;70624;51.978;5.656;2023-11-21T05:02:47;11.4;76.0
81140;SHT31;70624;51.978;5.656;2023-11-21T05:05:16;11.4;76.0
81140;SHT31;70624;51.978;5.656;2023-11-21T05:07:44;11.4;76.1
81140;SHT31;70624;51.978;5.656;2023-11-21T05:10:13;11.4;76.1
81140;SHT31;70624;51.978;5.656;2023-11-21T05:12:42;11.4;76.2
81140;SHT31;70624;51.978;5.656;2023-11-21T05:15:14;11.4;76.1
81140;SHT31;70624;51.978;5.656;2023-11-21T05:17:44;11.4;76.1
81140;SHT31;70624;51.978;5.656;2023-11-21T05:20:14;11.4;76.3
81140;SHT31;70624;51.978;5.656;2023-11-21T05:22:46;11.4;76.2
81140;SHT31;70624;51.978;5.656;2023-11-21T05:25:15;11.5;76.3
81140;SHT31;70624;51.978;5.656;2023-11-21T05:27:46;11.5;76.3
81140;SHT31;70624;51.978;5.656;2023-11-21T05:30:15;11.5;76.3
81140;SHT31;70624;51.978;5.656;2023-11-21T05:32:43;11.5;76.4
81140;SHT31;70624;51.978;5.656;2023-11-21T05:35:12;11.5;76.4
81140;SHT31;70624;51.978;5.656;2023-11-21T05:37:42;11.5;76.6
81140;SHT31;70624;51.978;5.656;2023-11-21T05:40:12;11.6;76.5
81140;SHT31;70624;51.978;5.656;2023-11-21T05:42:40;11.6;76.2
81140;SHT31;70624;51.978;5.656;2023-11-21T05:45:09;11.6;76.2
81140;SHT31;70624;51.978;5.656;2023-11-21T05:47:40;11.6;76.3
81140;SHT31;70624;51.978;5.656;2023-11-21T05:50:11;11.6;76.2
81140;SHT31;70624;51.978;5.656;2023-11-21T05:52:42;11.7;76.4
81140;SHT31;70624;51.978;5.656;2023-11-21T05:55:11;11.7;76.4
81140;SHT31;70624;51.978;5.656;2023-11-21T05:57:41;11.7;76.1
81140;SHT31;70624;51.978;5.656;2023-11-21T06:00:11;11.7;76.3
81140;SHT31;70624;51.978;5.656;2023-11-21T06:02:44;11.7;76.2
81140;SHT31;70624;51.978;5.656;2023-11-21T06:05:13;11.7;76.3
81140;SHT31;70624;51.978;5.656;2023-11-21T06:07:42;11.8;76.1
81140;SHT31;70624;51.978;5.656;2023-11-21T06:10:11;11.8;76.0
81140;SHT31;70624;51.978;5.656;2023-11-21T06:12:41;11.8;76.0
81140;SHT31;70624;51.978;5.656;2023-11-21T06:15:10;11.8;76.0
81140;SHT31;70624;51.978;5.656;2023-11-21T06:17:41;11.8;75.9
81140;SHT31;70624;51.978;5.656;2023-11-21T06:20:11;11.8;75.8
81140;SHT31;70624;51.978;5.656;2023-11-21T06:22:41;11.8;75.9
81140;SHT31;70624;51.978;5.656;2023-11-21T06:25:12;11.8;75.9
81140;SHT31;70624;51.978;5.656;2023-11-21T06:27:43;11.9;75.9
81140;SHT31;70624;51.978;5.656;2023-11-21T06:30:13;11.9;75.9
81140;SHT31;70624;51.978;5.656;2023-11-21T06:32:42;11.9;75.8
81140;SHT31;70624;51.978;5.656;2023-11-21T06:35:12;11.9;76.0
81140;SHT31;70624;51.978;5.656;2023-11-21T06:37:41;11.9;76.0
81140;SHT31;70624;51.978;5.656;2023-11-21T06:40:14;11.9;76.0
81140;SHT31;70624;51.978;5.656;2023-11-21T06:42:44;11.9;76.0
81140;SHT31;70624;51.978;5.656;2023-11-21T06:45:13;11.9;76.1
81140;SHT31;70624;51.978;5.656;2023-11-21T06:47:42;11.9;76.0
81140;SHT31;70624;51.978;5.656;2023-11-21T06:50:11;11.9;75.9
81140;SHT31;70624;51.978;5.656;2023-11-21T06:52:39;11.9;76.0
81140;SHT31;70624;51.978;5.656;2023-11-21T06:55:09;11.9;76.0
81140;SHT31;70624;51.978;5.656;2023-11-21T06:58:54;12.3;74.1
81140;SHT31;70624;51.978;5.656;2023-11-21T07:01:24;12.3;74.3
81140;SHT31;70624;51.978;5.656;2023-11-21T07:03:52;12.3;74.3
81140;SHT31;70624;51.978;5.656;2023-11-21T07:06:21;12.3;74.4
81140;SHT31;70624;51.978;5.656;2023-11-21T07:08:49;12.3;74.3
81140;SHT31;70624;51.978;5.656;2023-11-21T07:11:21;12.3;74.4
81140;SHT31;70624;51.978;5.656;2023-11-21T07:13:49;12.3;74.6
81140;SHT31;70624;51.978;5.656;2023-11-21T07:16:20;12.3;74.6
81140;SHT31;70624;51.978;5.656;2023-11-21T07:18:50;12.3;74.7
81140;SHT31;70624;51.978;5.656;2023-11-21T07:21:18;12.3;75.0
81140;SHT31;70624;51.978;5.656;2023-11-21T07:23:47;12.3;74.9
81140;SHT31;70624;51.978;5.656;2023-11-21T07:26:15;12.3;75.1
81140;SHT31;70624;51.978;5.656;2023-11-21T07:28:44;12.3;75.1
81140;SHT31;70624;51.978;5.656;2023-11-21T07:31:12;12.3;75.3
81140;SHT31;70624;51.978;5.656;2023-11-21T07:33:41;12.3;75.5
81140;SHT31;70624;51.978;5.656;2023-11-21T07:36:11;12.3;75.5
81140;SHT31;70624;51.978;5.656;2023-11-21T07:38:40;12.3;75.6
81140;SHT31;70624;51.978;5.656;2023-11-21T07:41:09;12.3;75.7
81140;SHT31;70624;51.978;5.656;2023-11-21T07:43:44;12.3;75.7
81140;SHT31;70624;51.978;5.656;2023-11-21T07:46:13;12.3;75.8
81140;SHT31;70624;51.978;5.656;2023-11-21T07:48:42;12.3;75.8
81140;SHT31;70624;51.978;5.656;2023-11-21T07:51:12;12.3;76.1
81140;SHT31;70624;51.978;5.656;2023-11-21T07:53:41;12.3;76.2
81140;SHT31;70624;51.978;5.656;2023-11-21T07:56:10;12.3;76.1
81140;SHT31;70624;51.978;5.656;2023-11-21T07:58:39;12.3;76.1
81140;SHT31;70624;51.978;5.656;2023-11-21T08:01:07;12.3;76.2
81140;SHT31;70624;51.978;5.656;2023-11-21T08:03:36;12.4;76.3
81140;SHT31;70624;51.978;5.656;2023-11-21T08:06:05;12.4;76.2
81140;SHT31;70624;51.978;5.656;2023-11-21T08:08:33;12.4;76.3
81140;SHT31;70624;51.978;5.656;2023-11-21T08:11:02;12.4;76.2
81140;SHT31;70624;51.978;5.656;2023-11-21T08:13:31;12.4;76.2
81140;SHT31;70624;51.978;5.656;2023-11-21T08:15:59;12.4;76.2
81140;SHT31;70624;51.978;5.656;2023-11-21T08:18:31;12.4;76.2
81140;SHT31;70624;51.978;5.656;2023-11-21T08:21:00;12.5;76.3
81140;SHT31;70624;51.978;5.656;2023-11-21T08:23:29;12.5;76.1
81140;SHT31;70624;51.978;5.656;2023-11-21T08:25:58;12.5;76.0
81140;SHT31;70624;51.978;5.656;2023-11-21T08:28:30;12.5;75.9
81140;SHT31;70624;51.978;5.656;2023-11-21T08:30:58;12.5;75.9
81140;SHT31;70624;51.978;5.656;2023-11-21T08:33:26;12.5;76.0
81140;SHT31;70624;51.978;5.656;2023-11-21T08:35:55;12.5;76.3
81140;SHT31;70624;51.978;5.656;2023-11-21T08:38:23;12.5;76.0
81140;SHT31;70624;51.978;5.656;2023-11-21T08:40:52;12.5;75.8
81140;SHT31;70624;51.978;5.656;2023-11-21T08:43:20;12.5;76.1
81140;SHT31;70624;51.978;5.656;2023-11-21T08:45:49;12.5;76.0
81140;SHT31;70624;51.978;5.656;2023-11-21T08:48:19;12.5;76.4
81140;SHT31;70624;51.978;5.656;2023-11-21T08:50:47;12.5;76.6
81140;SHT31;70624;51.978;5.656;2023-11-21T08:53:17;12.5;76.7
81140;SHT31;70624;51.978;5.656;2023-11-21T08:55:46;12.6;76.3
81140;SHT31;70624;51.978;5.656;2023-11-21T08:58:14;12.6;76.5
81140;SHT31;70624;51.978;5.656;2023-11-21T09:00:43;12.6;76.7
81140;SHT31;70624;51.978;5.656;2023-11-21T09:03:12;12.6;76.7
81140;SHT31;70624;51.978;5.656;2023-11-21T09:05:41;12.7;76.6
81140;SHT31;70624;51.978;5.656;2023-11-21T09:08:11;12.7;76.7
81140;SHT31;70624;51.978;5.656;2023-11-21T09:10:41;12.8;76.5
81140;SHT31;70624;51.978;5.656;2023-11-21T09:13:13;12.8;76.0
81140;SHT31;70624;51.978;5.656;2023-11-21T09:15:43;12.8;76.1
81140;SHT31;70624;51.978;5.656;2023-11-21T09:18:12;12.8;76.0
81140;SHT31;70624;51.978;5.656;2023-11-21T09:20:41;12.9;76.1
81140;SHT31;70624;51.978;5.656;2023-11-21T09:23:12;12.9;75.9
81140;SHT31;70624;51.978;5.656;2023-11-21T09:25:40;12.9;75.9
81140;SHT31;70624;51.978;5.656;2023-11-21T09:28:13;12.9;76.1
81140;SHT31;70624;51.978;5.656;2023-11-21T09:30:41;13.0;76.3
81140;SHT31;70624;51.978;5.656;2023-11-21T09:33:09;13.0;76.1
81140;SHT31;70624;51.978;5.656;2023-11-21T09:35:39;13.0;76.0
81140;SHT31;70624;51.978;5.656;2023-11-21T09:38:09;13.0;76.1
81140;SHT31;70624;51.978;5.656;2023-11-21T09:40:38;13.0;76.0
81140;SHT31;70624;51.978;5.656;2023-11-21T09:43:12;13.0;76.2
81140;SHT31;70624;51.978;5.656;2023-11-21T09:45:45;13.0;76.7
81140;SHT31;70624;51.978;5.656;2023-11-21T09:48:14;13.0;76.7
81140;SHT31;70624;51.978;5.656;2023-11-21T09:50:47;13.0;76.8
81140;SHT31;70624;51.978;5.656;2023-11-21T09:53:17;13.0;76.9
81140;SHT31;70624;51.978;5.656;2023-11-21T09:55:49;13.1;77.3
81140;SHT31;70624;51.978;5.656;2023-11-21T09:58:19;13.1;77.2
81140;SHT31;70624;51.978;5.656;2023-11-21T10:00:51;13.1;77.0
81140;SHT31;70624;51.978;5.656;2023-11-21T10:03:21;13.2;77.0
81140;SHT31;70624;51.978;5.656;2023-11-21T10:05:50;13.2;76.7
81140;SHT31;70624;51.978;5.656;2023-11-21T10:08:22;13.2;76.9
81140;SHT31;70624;51.978;5.656;2023-11-21T10:10:53;13.2;76.7
81140;SHT31;70624;51.978;5.656;2023-11-21T10:13:22;13.3;76.9
81140;SHT31;70624;51.978;5.656;2023-11-21T10:15:51;13.3;75.8
81140;SHT31;70624;51.978;5.656;2023-11-21T10:18:20;13.3;76.1
81140;SHT31;70624;51.978;5.656;2023-11-21T10:20:53;13.3;75.8
81140;SHT31;70624;51.978;5.656;2023-11-21T10:23:23;13.3;75.3
81140;SHT31;70624;51.978;5.656;2023-11-21T10:25:52;13.2;75.2
81140;SHT31;70624;51.978;5.656;2023-11-21T10:28:21;13.2;75.6
81140;SHT31;70624;51.978;5.656;2023-11-21T10:30:49;13.1;76.1
81140;SHT31;70624;51.978;5.656;2023-11-21T10:33:28;13.1;75.7
81140;SHT31;70624;51.978;5.656;2023-11-21T10:35:57;13.0;75.9
81140;SHT31;70624;51.978;5.656;2023-11-21T10:38:27;12.9;76.5
81140;SHT31;70624;51.978;5.656;2023-11-21T10:40:57;12.9;76.2
81140;SHT31;70624;51.978;5.656;2023-11-21T10:43:26;12.9;76.2
81140;SHT31;70624;51.978;5.656;2023-11-21T10:45:59;12.9;76.5
81140;SHT31;70624;51.978;5.656;2023-11-21T10:48:28;12.9;76.7
81140;SHT31;70624;51.978;5.656;2023-11-21T10:50:57;12.9;76.8
81140;SHT31;70624;51.978;5.656;2023-11-21T10:53:28;12.9;76.9
81140;SHT31;70624;51.978;5.656;2023-11-21T10:56:06;12.9;77.1
81140;SHT31;70624;51.978;5.656;2023-11-21T10:58:38;12.9;76.9
81140;SHT31;70624;51.978;5.656;2023-11-21T11:01:07;12.9;77.0
81140;SHT31;70624;51.978;5.656;2023-11-21T11:03:40;12.9;76.8
81140;SHT31;70624;51.978;5.656;2023-11-21T11:06:09;12.9;76.8
81140;SHT31;70624;51.978;5.656;2023-11-21T11:08:39;13.0;76.5
81140;SHT31;70624;51.978;5.656;2023-11-21T11:11:09;13.0;76.4
81140;SHT31;70624;51.978;5.656;2023-11-21T11:13:43;13.0;76.3
81140;SHT31;70624;51.978;5.656;2023-11-21T11:16:13;13.0;75.9
81140;SHT31;70624;51.978;5.656;2023-11-21T11:18:44;13.0;76.1
81140;SHT31;70624;51.978;5.656;2023-11-21T11:21:25;13.1;75.5
81140;SHT31;70624;51.978;5.656;2023-11-21T11:24:13;13.1;74.2
81140;SHT31;70624;51.978;5.656;2023-11-21T11:26:53;13.1;73.9
81140;SHT31;70624;51.978;5.656;2023-11-21T11:29:34;13.0;74.2
81140;SHT31;70624;51.978;5.656;2023-11-21T11:32:16;12.9;75.2
81140;SHT31;70624;51.978;5.656;2023-11-21T11:34:56;12.9;75.3
81140;SHT31;70624;51.978;5.656;2023-11-21T11:37:27;12.8;76.1
81140;SHT31;70624;51.978;5.656;2023-11-21T11:39:56;12.8;76.6
81140;SHT31;70624;51.978;5.656;2023-11-21T11:42:28;12.8;76.1
81140;SHT31;70624;51.978;5.656;2023-11-21T11:44:58;12.8;76.2
81140;SHT31;70624;51.978;5.656;2023-11-21T11:47:31;12.8;76.2
81140;SHT31;70624;51.978;5.656;2023-11-21T11:50:07;12.8;77.0
81140;SHT31;70624;51.978;5.656;2023-11-21T11:52:41;12.8;76.6
81140;SHT31;70624;51.978;5.656;2023-11-21T11:55:12;12.7;77.1
81140;SHT31;70624;51.978;5.656;2023-11-21T11:57:45;12.7;77.3
81140;SHT31;70624;51.978;5.656;2023-11-21T12:00:18;12.7;77.4
81140;SHT31;70624;51.978;5.656;2023-11-21T12:02:53;12.7;77.2
81140;SHT31;70624;51.978;5.656;2023-11-21T12:05:24;12.7;77.6
81140;SHT31;70624;51.978;5.656;2023-11-21T12:07:55;12.7;77.8
81140;SHT31;70624;51.978;5.656;2023-11-21T12:10:25;12.7;77.4
81140;SHT31;70624;51.978;5.656;2023-11-21T12:12:55;12.7;77.1
81140;SHT31;70624;51.978;5.656;2023-11-21T12:15:25;12.7;77.1
81140;SHT31;70624;51.978;5.656;2023-11-21T12:17:56;12.7;77.2
81140;SHT31;70624;51.978;5.656;2023-11-21T12:20:25;12.8;76.5
81140;SHT31;70624;51.978;5.656;2023-11-21T12:22:56;12.8;76.5
81140;SHT31;70624;51.978;5.656;2023-11-21T12:25:27;12.8;76.8
81140;SHT31;70624;51.978;5.656;2023-11-21T12:27:59;12.9;76.4
81140;SHT31;70624;51.978;5.656;2023-11-21T12:30:30;12.9;76.1
81140;SHT31;70624;51.978;5.656;2023-11-21T12:33:00;12.9;76.1
81140;SHT31;70624;51.978;5.656;2023-11-21T12:35:31;12.8;76.6
81140;SHT31;70624;51.978;5.656;2023-11-21T12:38:02;12.8;77.0
81140;SHT31;70624;51.978;5.656;2023-11-21T12:40:33;12.8;76.8
81140;SHT31;70624;51.978;5.656;2023-11-21T12:43:02;12.8;76.3
81140;SHT31;70624;51.978;5.656;2023-11-21T12:45:30;12.8;76.4
81140;SHT31;70624;51.978;5.656;2023-11-21T12:48:01;12.7;77.2
81140;SHT31;70624;51.978;5.656;2023-11-21T12:50:35;12.7;76.4
81140;SHT31;70624;51.978;5.656;2023-11-21T12:53:05;12.7;76.5
81140;SHT31;70624;51.978;5.656;2023-11-21T12:55:35;12.7;76.8
81140;SHT31;70624;51.978;5.656;2023-11-21T12:58:06;12.7;75.9
81140;SHT31;70624;51.978;5.656;2023-11-21T13:00:39;12.7;75.9
81140;SHT31;70624;51.978;5.656;2023-11-21T13:03:10;12.7;76.0
81140;SHT31;70624;51.978;5.656;2023-11-21T13:05:44;12.6;76.8
81140;SHT31;70624;51.978;5.656;2023-11-21T13:08:13;12.6;77.4
81140;SHT31;70624;51.978;5.656;2023-11-21T13:10:48;12.6;77.3
81140;SHT31;70624;51.978;5.656;2023-11-21T13:13:17;12.6;76.4
81140;SHT31;70624;51.978;5.656;2023-11-21T13:15:50;12.6;76.5
81140;SHT31;70624;51.978;5.656;2023-11-21T13:18:20;12.6;76.4
81140;SHT31;70624;51.978;5.656;2023-11-21T13:20:50;12.6;76.1
81140;SHT31;70624;51.978;5.656;2023-11-21T13:23:18;12.6;75.8
81140;SHT31;70624;51.978;5.656;2023-11-21T13:25:47;12.6;76.2
81140;SHT31;70624;51.978;5.656;2023-11-21T13:28:16;12.6;76.6
81140;SHT31;70624;51.978;5.656;2023-11-21T13:30:47;12.6;76.3
81140;SHT31;70624;51.978;5.656;2023-11-21T13:33:19;12.6;75.8
81140;SHT31;70624;51.978;5.656;2023-11-21T13:35:52;12.6;76.2
81140;SHT31;70624;51.978;5.656;2023-11-21T13:38:22;12.6;75.4
81140;SHT31;70624;51.978;5.656;2023-11-21T13:40:52;12.6;75.1
81140;SHT31;70624;51.978;5.656;2023-11-21T13:43:23;12.6;75.3
81140;SHT31;70624;51.978;5.656;2023-11-21T13:45:53;12.6;75.5
81140;SHT31;70624;51.978;5.656;2023-11-21T13:48:26;12.6;76.0
81140;SHT31;70624;51.978;5.656;2023-11-21T13:51:01;12.6;75.4
81140;SHT31;70624;51.978;5.656;2023-11-21T13:53:34;12.7;75.4
81140;SHT31;70624;51.978;5.656;2023-11-21T13:56:04;12.7;75.1
81140;SHT31;70624;51.978;5.656;2023-11-21T13:58:33;12.8;75.4
81140;SHT31;70624;51.978;5.656;2023-11-21T14:01:08;12.8;74.9
81140;SHT31;70624;51.978;5.656;2023-11-21T14:03:42;12.8;74.4
81140;SHT31;70624;51.978;5.656;2023-11-21T14:06:15;12.8;74.8
81140;SHT31;70624;51.978;5.656;2023-11-21T14:08:48;12.8;74.3
81140;SHT31;70624;51.978;5.656;2023-11-21T14:11:17;12.8;74.7
81140;SHT31;70624;51.978;5.656;2023-11-21T14:13:48;12.8;74.7
81140;SHT31;70624;51.978;5.656;2023-11-21T14:16:17;12.9;74.1
81140;SHT31;70624;51.978;5.656;2023-11-21T14:18:45;12.9;73.5
81140;SHT31;70624;51.978;5.656;2023-11-21T14:21:25;12.8;73.5
81140;SHT31;70624;51.978;5.656;2023-11-21T14:23:53;12.8;73.5
81140;SHT31;70624;51.978;5.656;2023-11-21T14:26:24;12.8;73.9
81140;SHT31;70624;51.978;5.656;2023-11-21T14:28:54;12.7;73.3
81140;SHT31;70624;51.978;5.656;2023-11-21T14:31:23;12.7;73.9
81140;SHT31;70624;51.978;5.656;2023-11-21T14:33:53;12.6;74.1
81140;SHT31;70624;51.978;5.656;2023-11-21T14:36:21;12.6;73.9
81140;SHT31;70624;51.978;5.656;2023-11-21T14:38:50;12.6;74.3
81140;SHT31;70624;51.978;5.656;2023-11-21T14:41:18;12.5;73.9
81140;SHT31;70624;51.978;5.656;2023-11-21T14:43:47;12.5;73.9
81140;SHT31;70624;51.978;5.656;2023-11-21T14:46:16;12.4;73.9
81140;SHT31;70624;51.978;5.656;2023-11-21T14:48:46;12.4;74.7
81140;SHT31;70624;51.978;5.656;2023-11-21T14:51:21;12.3;74.7
81140;SHT31;70624;51.978;5.656;2023-11-21T14:53:57;12.3;74.9
81140;SHT31;70624;51.978;5.656;2023-11-21T14:56:32;12.2;74.9
81140;SHT31;70624;51.978;5.656;2023-11-21T14:59:03;12.1;75.2
81140;SHT31;70624;51.978;5.656;2023-11-21T15:01:39;12.1;75.9
81140;SHT31;70624;51.978;5.656;2023-11-21T15:04:19;12.0;76.2
81140;SHT31;70624;51.978;5.656;2023-11-21T15:06:54;11.9;76.2
81140;SHT31;70624;51.978;5.656;2023-11-21T15:09:25;11.9;76.3
81140;SHT31;70624;51.978;5.656;2023-11-21T15:12:03;11.8;76.7
81140;SHT31;70624;51.978;5.656;2023-11-21T15:14:37;11.8;76.6
81140;SHT31;70624;51.978;5.656;2023-11-21T15:17:05;11.7;76.1
81140;SHT31;70624;51.978;5.656;2023-11-21T15:19:34;11.7;75.6
81140;SHT31;70624;51.978;5.656;2023-11-21T15:22:03;11.6;75.2
81140;SHT31;70624;51.978;5.656;2023-11-21T15:24:33;11.6;75.3
81140;SHT31;70624;51.978;5.656;2023-11-21T15:27:01;11.5;74.3
81140;SHT31;70624;51.978;5.656;2023-11-21T15:29:33;11.5;74.0
81140;SHT31;70624;51.978;5.656;2023-11-21T15:32:02;11.4;74.6
81140;SHT31;70624;51.978;5.656;2023-11-21T15:34:30;11.4;74.9
81140;SHT31;70624;51.978;5.656;2023-11-21T15:36:59;11.4;72.5
81140;SHT31;70624;51.978;5.656;2023-11-21T15:39:27;11.3;72.9
81140;SHT31;70624;51.978;5.656;2023-11-21T15:41:58;11.3;73.1
81140;SHT31;70624;51.978;5.656;2023-11-21T15:44:26;11.2;72.7
81140;SHT31;70624;51.978;5.656;2023-11-21T15:46:56;11.2;71.9
81140;SHT31;70624;51.978;5.656;2023-11-21T15:49:25;11.1;72.4
81140;SHT31;70624;51.978;5.656;2023-11-21T15:51:56;11.1;72.0
81140;SHT31;70624;51.978;5.656;2023-11-21T15:54:26;11.0;71.7
81140;SHT31;70624;51.978;5.656;2023-11-21T15:56:56;11.0;72.0
81140;SHT31;70624;51.978;5.656;2023-11-21T15:59:27;11.0;71.7
81140;SHT31;70624;51.978;5.656;2023-11-21T16:01:58;10.9;72.0
81140;SHT31;70624;51.978;5.656;2023-11-21T16:04:27;10.9;72.7
81140;SHT31;70624;51.978;5.656;2023-11-21T16:06:55;10.9;71.8
81140;SHT31;70624;51.978;5.656;2023-11-21T16:09:25;10.9;70.9
81140;SHT31;70624;51.978;5.656;2023-11-21T16:11:59;10.9;71.0
81140;SHT31;70624;51.978;5.656;2023-11-21T16:14:29;10.9;69.7
81140;SHT31;70624;51.978;5.656;2023-11-21T16:17:06;10.8;69.3
81140;SHT31;70624;51.978;5.656;2023-11-21T16:19:37;10.7;69.6
81140;SHT31;70624;51.978;5.656;2023-11-21T16:22:06;10.7;69.7